createdAt,value
2022-09-03T00:00:36.065Z,14.80
2022-09-03T00:03:15.391Z,15.40
2022-09-03T00:05:49.868Z,12.60
2022-09-03T00:08:20.888Z,15.80
2022-09-03T00:10:48.023Z,15.40
2022-09-03T00:13:17.911Z,14.70
2022-09-03T00:15:44.974Z,12.80
2022-09-03T00:18:20.926Z,14.90
2022-09-03T00:20:54.179Z,13.80
2022-09-03T00:23:22.333Z,12.90
2022-09-03T00:25:52.341Z,12.60
2022-09-03T00:28:20.905Z,15.00
2022-09-03T00:30:57.317Z,13.90
2022-09-03T00:33:27.817Z,14.60
2022-09-03T00:36:02.804Z,15.60
2022-09-03T00:38:30.006Z,14.30
2022-09-03T00:40:59.688Z,15.30
2022-09-03T00:43:32.677Z,15.10
2022-09-03T00:45:59.641Z,15.00
2022-09-03T00:51:10.823Z,13.70
2022-09-03T00:53:43.764Z,15.60
2022-09-03T00:56:32.417Z,15.60
2022-09-03T00:59:11.662Z,15.00
2022-09-03T01:02:01.164Z,15.10
2022-09-03T01:04:28.096Z,15.10
2022-09-03T01:06:58.986Z,15.20
2022-09-03T01:09:35.391Z,15.10
2022-09-03T01:12:22.678Z,15.30
2022-09-03T01:15:16.131Z,14.80
2022-09-03T01:17:49.442Z,15.50
2022-09-03T01:20:28.773Z,14.80
2022-09-03T01:22:57.476Z,15.30
2022-09-03T01:25:45.812Z,15.40
2022-09-03T01:28:21.841Z,14.10
2022-09-03T01:30:53.474Z,12.30
2022-09-03T01:33:38.782Z,15.00
2022-09-03T01:38:41.782Z,15.20
2022-09-03T01:43:57.412Z,14.60
2022-09-03T01:49:04.940Z,14.90
2022-09-03T02:13:51.149Z,13.30
2022-09-03T02:18:50.124Z,12.50
2022-09-03T02:31:06.802Z,14.00
2022-09-03T02:40:56.679Z,14.10
2022-09-03T07:24:37.819Z,15.00
2022-09-03T07:29:32.590Z,16.70
2022-09-03T07:34:28.586Z,17.10
2022-09-03T07:36:55.569Z,16.30
2022-09-03T07:41:51.276Z,15.20
2022-09-03T07:51:46.676Z,17.80
2022-09-03T07:54:16.141Z,17.90
2022-09-03T07:56:43.195Z,17.40
2022-09-03T07:59:11.944Z,16.90
2022-09-03T08:01:41.336Z,17.90
2022-09-03T08:06:37.069Z,17.30
2022-09-03T08:11:35.253Z,18.00
2022-09-03T08:16:30.964Z,16.70
2022-09-03T08:21:26.274Z,18.30
2022-09-03T08:23:54.810Z,18.60
2022-09-03T08:26:22.651Z,17.80
2022-09-03T08:28:49.734Z,19.00
2022-09-03T08:31:18.226Z,18.50
2022-09-03T08:33:47.439Z,18.20
2022-09-03T08:36:19.196Z,19.70
2022-09-03T08:38:46.595Z,19.60
2022-09-03T08:41:14.757Z,20.30
2022-09-03T08:44:11.186Z,19.60
2022-09-03T08:46:50.594Z,18.10
2022-09-03T08:49:40.910Z,20.80
2022-09-03T08:52:14.641Z,20.70
2022-09-03T08:54:41.778Z,20.20
2022-09-03T08:57:08.780Z,20.00
2022-09-03T08:59:37.159Z,19.50
2022-09-03T09:02:07.232Z,19.60
2022-09-03T09:04:53.106Z,18.60
2022-09-03T09:07:38.344Z,20.60
2022-09-03T09:10:24.227Z,18.80
2022-09-03T09:15:26.822Z,19.30
2022-09-03T09:17:56.774Z,18.30
2022-09-03T09:20:33.498Z,20.70
2022-09-03T09:23:06.636Z,18.50
2022-09-03T09:25:39.348Z,21.20
2022-09-03T09:28:13.195Z,21.10
2022-09-03T09:30:40.386Z,22.00
2022-09-03T09:33:07.430Z,25.20
2022-09-03T09:35:35.142Z,26.00
2022-09-03T09:38:02.034Z,26.50
2022-09-03T09:40:36.086Z,26.00
2022-09-03T09:43:16.167Z,26.20
2022-09-03T09:45:44.746Z,27.00
2022-09-03T09:48:17.929Z,27.80
2022-09-03T09:50:45.090Z,28.90
2022-09-03T09:53:16.323Z,29.90
2022-09-03T09:56:09.781Z,28.70
2022-09-03T09:58:36.761Z,30.60
2022-09-03T10:01:15.207Z,30.80
2022-09-03T10:04:02.445Z,32.20
2022-09-03T10:06:50.946Z,33.30
2022-09-03T10:09:19.260Z,33.20
2022-09-03T10:11:50.858Z,33.60
2022-09-03T10:14:35.183Z,34.40
2022-09-03T10:17:11.543Z,35.10
2022-09-03T10:20:06.229Z,35.30
2022-09-03T10:22:38.909Z,34.70
2022-09-03T10:25:20.967Z,34.70
2022-09-03T10:27:47.917Z,33.80
2022-09-03T10:30:16.041Z,34.50
2022-09-03T10:33:03.766Z,34.20
2022-09-03T10:35:31.990Z,34.70
2022-09-03T10:38:10.651Z,35.70
2022-09-03T10:40:42.809Z,35.80
2022-09-03T10:43:33.195Z,36.60
2022-09-03T10:48:38.311Z,38.40
2022-09-03T10:53:55.858Z,38.70
2022-09-03T10:56:27.983Z,38.40
2022-09-03T10:58:55.046Z,36.10
2022-09-03T11:01:28.264Z,34.70
2022-09-03T11:04:01.607Z,33.00
2022-09-03T11:06:29.449Z,32.80
2022-09-03T11:09:09.111Z,32.10
2022-09-03T11:11:48.834Z,31.40
2022-09-03T11:14:49.108Z,30.40
2022-09-03T11:17:24.017Z,31.50
2022-09-03T11:19:53.013Z,35.40
2022-09-03T11:22:23.244Z,34.10
2022-09-03T11:24:58.492Z,33.50
2022-09-03T11:27:35.550Z,34.30
2022-09-03T11:30:07.500Z,34.50
2022-09-03T11:32:34.374Z,35.30
2022-09-03T11:35:01.624Z,35.10
2022-09-03T11:37:30.460Z,33.60
2022-09-03T11:40:07.906Z,31.70
2022-09-03T11:42:39.491Z,32.40
2022-09-03T11:45:24.615Z,32.40
2022-09-03T11:47:51.929Z,32.30
2022-09-03T11:50:26.638Z,33.00
2022-09-03T11:52:56.678Z,33.40
2022-09-03T11:55:42.095Z,33.30
2022-09-03T11:58:12.330Z,31.00
2022-09-03T12:00:42.856Z,31.10
2022-09-03T12:03:14.381Z,30.10
2022-09-03T12:05:44.176Z,28.80
2022-09-03T12:08:31.503Z,29.60
2022-09-03T12:11:04.313Z,29.10
2022-09-03T12:13:50.929Z,29.40
2022-09-03T12:16:18.062Z,29.80
2022-09-03T12:18:45.692Z,29.40
2022-09-03T12:21:12.879Z,29.90
2022-09-03T12:23:47.888Z,29.90
2022-09-03T12:26:16.560Z,30.10
2022-09-03T12:28:45.740Z,30.40
2022-09-03T12:31:21.665Z,30.10
2022-09-03T12:33:50.088Z,30.30
2022-09-03T12:36:17.420Z,30.20
2022-09-03T12:39:10.392Z,29.70
2022-09-03T12:41:32.635Z,28.50
2022-09-03T12:44:00.676Z,29.20
2022-09-03T12:46:33.288Z,27.80
2022-09-03T12:52:05.158Z,28.00
2022-09-03T12:54:33.954Z,27.50
2022-09-03T12:57:01.211Z,27.70
2022-09-03T12:59:31.582Z,27.90
2022-09-03T13:02:00.968Z,28.00
2022-09-03T13:04:30.175Z,28.30
2022-09-03T13:07:03.557Z,27.20
2022-09-03T13:09:33.293Z,27.70
2022-09-03T13:12:01.859Z,28.10
2022-09-03T13:14:28.996Z,28.30
2022-09-03T13:16:56.144Z,29.10
2022-09-03T13:19:29.385Z,29.70
2022-09-03T13:22:15.123Z,31.50
2022-09-03T13:24:41.985Z,31.90
2022-09-03T13:27:12.288Z,33.20
2022-09-03T13:29:52.641Z,33.10
2022-09-03T13:32:22.692Z,38.40
2022-09-03T13:34:53.675Z,36.70
2022-09-03T13:37:25.898Z,37.40
2022-09-03T13:39:59.276Z,34.60
2022-09-03T13:42:35.381Z,33.50
2022-09-03T13:45:20.639Z,34.20
2022-09-03T13:48:32.172Z,36.80
2022-09-03T13:51:25.878Z,38.50
2022-09-03T13:54:01.676Z,37.90
2022-09-03T13:57:03.959Z,37.30
2022-09-03T13:59:55.098Z,34.90
2022-09-03T14:02:32.729Z,34.00
2022-09-03T14:05:03.233Z,33.80
2022-09-03T14:07:45.151Z,33.70
2022-09-03T14:10:14.944Z,33.20
2022-09-03T14:12:46.510Z,32.50
2022-09-03T14:15:34.936Z,32.30
2022-09-03T14:18:13.768Z,32.00
2022-09-03T14:20:46.741Z,31.70
2022-09-03T14:23:22.526Z,31.30
2022-09-03T14:25:55.914Z,31.10
2022-09-03T14:28:31.988Z,31.00
2022-09-03T14:31:03.515Z,30.60
2022-09-03T14:33:30.429Z,31.20
2022-09-03T14:36:20.341Z,30.70
2022-09-03T14:39:05.927Z,30.90
2022-09-03T14:41:50.579Z,32.80
2022-09-03T14:46:52.859Z,34.60
2022-09-03T14:49:55.077Z,34.30
2022-09-03T14:52:37.388Z,32.70
2022-09-03T14:55:39.643Z,32.70
2022-09-03T14:58:23.457Z,32.10
2022-09-03T15:01:04.205Z,32.30
2022-09-03T15:03:41.414Z,31.70
2022-09-03T15:06:17.444Z,31.50
2022-09-03T15:08:45.433Z,30.90
2022-09-03T15:11:17.335Z,32.30
2022-09-03T15:13:55.626Z,32.00
2022-09-03T15:16:28.655Z,32.10
2022-09-03T15:19:08.923Z,31.80
2022-09-03T15:21:36.095Z,30.00
2022-09-03T15:24:15.310Z,30.10
2022-09-03T15:26:47.232Z,29.30
2022-09-03T15:29:32.695Z,28.30
2022-09-03T15:32:09.905Z,27.50
2022-09-03T15:34:41.031Z,28.70
2022-09-03T15:37:15.023Z,28.60
2022-09-03T15:39:44.212Z,28.00
2022-09-03T15:42:17.235Z,28.10
2022-09-03T15:44:49.123Z,27.50
2022-09-03T15:47:28.059Z,27.50
2022-09-03T15:50:06.687Z,27.10
2022-09-03T15:52:53.295Z,26.70
2022-09-03T15:55:23.083Z,26.50
2022-09-03T15:57:49.998Z,26.10
2022-09-03T16:00:21.933Z,26.30
2022-09-03T16:03:09.736Z,25.50
2022-09-03T16:05:41.305Z,25.90
2022-09-03T16:08:12.776Z,25.70
2022-09-03T16:10:42.792Z,24.60
2022-09-03T16:13:09.711Z,24.90
2022-09-03T16:18:06.816Z,24.50
2022-09-03T16:20:41.368Z,24.80
2022-09-03T16:23:27.263Z,24.80
2022-09-03T16:25:57.337Z,24.30
2022-09-03T16:28:38.409Z,24.30
2022-09-03T16:31:21.287Z,23.40
2022-09-03T16:33:57.821Z,22.40
2022-09-03T16:36:47.997Z,23.70
2022-09-03T16:41:47.301Z,23.90
2022-09-03T16:44:33.312Z,23.90
2022-09-03T16:47:00.256Z,23.90
2022-09-03T16:49:27.204Z,23.80
2022-09-03T16:51:56.516Z,23.20
2022-09-03T16:54:44.192Z,23.20
2022-09-03T16:57:24.536Z,22.30
2022-09-03T17:00:08.740Z,23.10
2022-09-03T17:02:42.544Z,23.30
2022-09-03T17:05:16.316Z,22.90
2022-09-03T17:07:58.572Z,23.00
2022-09-03T17:10:29.034Z,23.20
2022-09-03T17:13:13.006Z,23.20
2022-09-03T17:15:58.762Z,22.30
2022-09-03T17:21:07.301Z,22.70
2022-09-03T17:23:36.539Z,22.60
2022-09-03T17:26:13.005Z,22.80
2022-09-03T17:28:58.806Z,22.70
2022-09-03T17:31:39.235Z,22.90
2022-09-03T17:34:32.554Z,22.40
2022-09-03T17:37:07.083Z,22.40
2022-09-03T17:39:44.967Z,22.50
2022-09-03T17:42:21.236Z,22.40
2022-09-03T17:44:51.700Z,22.90
2022-09-03T17:47:34.228Z,22.90
2022-09-03T17:50:27.423Z,22.70
2022-09-03T17:53:00.881Z,22.10
2022-09-03T17:55:42.316Z,21.50
2022-09-03T17:58:25.808Z,22.50
2022-09-03T18:00:57.886Z,21.50
2022-09-03T18:03:28.677Z,22.10
2022-09-03T18:06:01.593Z,21.90
2022-09-03T18:11:09.047Z,22.30
2022-09-03T18:13:54.561Z,22.00
2022-09-03T18:16:27.845Z,22.20
2022-09-03T18:19:00.555Z,21.80
2022-09-03T18:21:48.070Z,21.40
2022-09-03T18:24:41.947Z,21.30
2022-09-03T18:27:50.570Z,20.80
2022-09-03T18:30:36.333Z,20.10
2022-09-03T18:33:22.024Z,21.90
2022-09-03T18:36:07.545Z,21.40
2022-09-03T18:38:54.255Z,20.10
2022-09-03T18:41:42.951Z,20.80
2022-09-03T18:44:36.634Z,21.80
2022-09-03T18:50:47.731Z,21.50
2022-09-03T18:53:40.795Z,21.50
2022-09-03T18:56:26.415Z,20.90
2022-09-03T18:59:18.725Z,21.30
2022-09-03T19:02:04.581Z,20.70
2022-09-03T19:05:06.124Z,21.10
2022-09-03T19:08:10.309Z,20.50
2022-09-03T19:11:20.024Z,20.60
2022-09-03T19:14:05.655Z,20.90
2022-09-03T19:16:57.473Z,20.60
2022-09-03T19:19:58.466Z,20.50
2022-09-03T19:22:51.722Z,20.70
2022-09-03T19:25:37.606Z,19.30
2022-09-03T19:28:26.416Z,20.60
2022-09-03T19:31:31.123Z,20.50
2022-09-03T19:34:22.584Z,18.60
2022-09-03T19:37:17.538Z,19.80
2022-09-03T19:40:03.026Z,19.40
2022-09-03T19:45:36.329Z,20.30
2022-09-03T19:51:15.666Z,20.40
2022-09-03T19:54:01.411Z,20.60
2022-09-03T19:56:47.714Z,19.90
2022-09-03T19:59:37.766Z,18.30
2022-09-03T20:02:24.123Z,19.70
2022-09-03T20:05:12.590Z,19.90
2022-09-03T20:07:58.301Z,19.30
2022-09-03T20:10:25.537Z,18.40
2022-09-03T20:13:14.780Z,19.40
2022-09-03T20:15:44.812Z,18.40
2022-09-03T20:18:11.955Z,19.20
2022-09-03T20:20:49.122Z,19.50
2022-09-03T20:23:35.084Z,20.00
2022-09-03T20:26:10.617Z,19.50
2022-09-03T20:28:37.819Z,18.20
2022-09-03T20:31:04.850Z,19.20
2022-09-03T20:33:31.812Z,19.50
2022-09-03T20:36:16.587Z,19.20
2022-09-03T20:38:49.836Z,19.30
2022-09-03T20:41:32.548Z,19.90
2022-09-03T20:44:18.107Z,19.40
2022-09-03T20:47:04.474Z,19.70
2022-09-03T20:49:38.585Z,19.70
2022-09-03T20:52:12.259Z,19.60
2022-09-03T20:54:39.273Z,19.90
2022-09-03T20:59:49.152Z,19.80
2022-09-03T21:02:18.614Z,19.30
2022-09-03T21:04:54.581Z,19.00
2022-09-03T21:07:27.461Z,19.60
2022-09-03T21:09:57.293Z,19.20
2022-09-03T21:14:58.672Z,18.00
2022-09-03T21:17:28.554Z,18.20
2022-09-03T21:19:58.299Z,18.30
2022-09-03T21:22:34.179Z,18.60
2022-09-03T21:25:13.781Z,17.80
2022-09-03T21:27:49.779Z,17.80
2022-09-03T21:32:44.057Z,17.70
2022-09-03T21:35:29.778Z,18.40
2022-09-03T21:38:07.191Z,17.20
2022-09-03T21:40:36.465Z,17.00
2022-09-03T21:43:12.936Z,17.80
2022-09-03T21:45:55.999Z,17.70
2022-09-03T21:48:26.248Z,18.40
2022-09-03T21:53:25.500Z,17.30
2022-09-03T21:56:10.789Z,18.20
2022-09-03T22:13:43.988Z,18.00
2022-09-03T22:16:13.428Z,18.20
2022-09-03T22:21:13.305Z,16.90
2022-09-03T22:23:43.635Z,15.30
2022-09-03T22:26:20.226Z,16.50
2022-09-03T22:29:08.056Z,17.80
2022-09-03T22:31:38.030Z,17.50
2022-09-03T22:34:23.662Z,16.80
2022-09-03T22:36:53.140Z,17.80
2022-09-03T22:44:38.663Z,16.40
2022-09-03T22:47:08.622Z,16.20
2022-09-03T22:49:41.775Z,16.70
2022-09-03T22:54:41.726Z,16.20
2022-09-03T22:57:09.868Z,16.70
2022-09-03T23:07:08.588Z,17.10
2022-09-03T23:14:36.791Z,16.40
2022-09-03T23:24:54.122Z,16.40
2022-09-03T23:29:50.429Z,15.60
2022-09-03T23:32:17.400Z,16.80
2022-09-03T23:37:35.318Z,17.00
2022-09-03T23:40:09.007Z,16.90
2022-09-03T23:42:45.097Z,17.30
2022-09-03T23:45:20.209Z,14.70
